createdAt,value
2022-09-04T00:00:09.147Z,16.50
2022-09-04T00:03:05.675Z,16.50
2022-09-04T00:05:37.740Z,16.40
2022-09-04T00:08:31.259Z,16.40
2022-09-04T00:11:12.788Z,16.40
2022-09-04T00:13:48.720Z,16.40
2022-09-04T00:16:22.195Z,16.30
2022-09-04T00:19:21.227Z,16.30
2022-09-04T00:21:56.546Z,16.30
2022-09-04T00:24:31.160Z,16.20
2022-09-04T00:27:07.401Z,16.20
2022-09-04T00:29:53.023Z,16.10
2022-09-04T00:32:25.463Z,16.10
2022-09-04T00:35:01.924Z,16.00
2022-09-04T00:37:35.097Z,16.10
2022-09-04T00:40:09.341Z,16.00
2022-09-04T00:42:51.050Z,16.00
2022-09-04T00:45:48.945Z,16.00
2022-09-04T00:48:23.315Z,15.90
2022-09-04T00:51:16.870Z,15.90
2022-09-04T00:54:11.054Z,15.80
2022-09-04T00:57:03.571Z,15.80
2022-09-04T01:00:01.469Z,15.80
2022-09-04T01:02:42.881Z,15.70
2022-09-04T01:05:27.311Z,15.70
2022-09-04T01:08:20.634Z,15.70
2022-09-04T01:11:09.008Z,15.70
2022-09-04T01:14:14.384Z,15.70
2022-09-04T01:16:47.931Z,15.70
2022-09-04T01:19:14.619Z,15.70
2022-09-04T01:21:44.452Z,15.70
2022-09-04T01:24:25.519Z,15.80
2022-09-04T01:27:16.193Z,15.80
2022-09-04T01:30:05.780Z,15.70
2022-09-04T01:32:43.669Z,15.70
2022-09-04T01:35:27.621Z,15.70
2022-09-04T01:38:03.079Z,15.60
2022-09-04T01:40:39.665Z,15.60
2022-09-04T01:43:12.639Z,15.60
2022-09-04T01:46:00.607Z,15.60
2022-09-04T01:48:48.022Z,15.60
2022-09-04T01:51:34.029Z,15.60
2022-09-04T01:54:44.773Z,15.60
2022-09-04T01:57:32.704Z,15.60
2022-09-04T02:00:10.502Z,15.70
2022-09-04T02:02:55.944Z,15.70
2022-09-04T02:05:25.556Z,15.70
2022-09-04T02:08:26.831Z,15.70
2022-09-04T02:11:15.798Z,15.80
2022-09-04T02:14:08.622Z,15.70
2022-09-04T02:16:54.068Z,15.70
2022-09-04T02:19:35.109Z,15.70
2022-09-04T02:22:15.972Z,15.60
2022-09-04T02:24:58.804Z,15.70
2022-09-04T02:28:03.840Z,15.70
2022-09-04T02:30:54.117Z,15.70
2022-09-04T02:33:31.118Z,15.70
2022-09-04T02:36:23.444Z,15.80
2022-09-04T02:39:05.157Z,15.80
2022-09-04T02:41:51.002Z,15.90
2022-09-04T02:44:39.376Z,15.90
2022-09-04T02:47:31.190Z,16.00
2022-09-04T02:50:17.243Z,16.00
2022-09-04T02:52:52.424Z,16.00
2022-09-04T02:55:44.478Z,16.10
2022-09-04T02:58:47.566Z,16.00
2022-09-04T03:01:20.313Z,16.10
2022-09-04T03:04:12.748Z,16.10
2022-09-04T03:06:57.142Z,16.00
2022-09-04T03:09:46.621Z,16.10
2022-09-04T03:12:37.246Z,16.00
2022-09-04T03:15:29.337Z,15.90
2022-09-04T03:18:04.830Z,15.90
2022-09-04T03:20:44.651Z,15.80
2022-09-04T03:23:36.599Z,15.80
2022-09-04T03:26:20.714Z,15.70
2022-09-04T03:28:56.506Z,15.80
2022-09-04T03:31:34.258Z,15.80
2022-09-04T03:34:39.211Z,15.80
2022-09-04T03:37:27.492Z,15.80
2022-09-04T03:40:21.583Z,15.80
2022-09-04T03:43:12.653Z,15.70
2022-09-04T03:45:57.513Z,15.70
2022-09-04T03:48:51.820Z,15.70
2022-09-04T03:51:42.708Z,15.80
2022-09-04T03:54:26.040Z,15.70
2022-09-04T03:57:06.290Z,15.80
2022-09-04T03:59:47.690Z,15.80
2022-09-04T04:02:30.052Z,15.80
2022-09-04T04:05:08.925Z,15.80
2022-09-04T04:07:47.928Z,15.80
2022-09-04T04:10:33.723Z,15.80
2022-09-04T04:13:27.694Z,15.90
2022-09-04T04:16:10.966Z,15.90
2022-09-04T04:19:10.771Z,16.00
2022-09-04T04:22:01.512Z,16.00
2022-09-04T04:24:39.652Z,16.00
2022-09-04T04:27:27.717Z,16.10
2022-09-04T04:30:09.800Z,16.10
2022-09-04T04:33:10.390Z,16.10
2022-09-04T04:35:52.036Z,16.20
2022-09-04T04:38:55.074Z,16.20
2022-09-04T04:42:00.811Z,16.20
2022-09-04T04:45:04.095Z,16.20
2022-09-04T04:47:50.271Z,16.10
2022-09-04T04:50:41.919Z,16.20
2022-09-04T04:53:32.291Z,16.10
2022-09-04T04:56:34.060Z,16.00
2022-09-04T04:59:13.850Z,16.00
2022-09-04T05:02:07.809Z,16.00
2022-09-04T05:05:02.856Z,15.90
2022-09-04T05:07:37.621Z,16.00
2022-09-04T05:10:23.331Z,16.10
2022-09-04T05:13:10.213Z,16.30
2022-09-04T05:16:08.018Z,16.30
2022-09-04T05:19:00.239Z,16.40
2022-09-04T05:21:36.571Z,16.40
2022-09-04T05:24:13.252Z,16.50
2022-09-04T05:26:52.914Z,16.50
2022-09-04T05:29:22.862Z,16.60
2022-09-04T05:32:01.236Z,16.60
2022-09-04T05:34:39.801Z,16.60
2022-09-04T05:37:51.044Z,16.50
2022-09-04T05:40:47.268Z,16.50
2022-09-04T05:43:39.006Z,16.50
2022-09-04T05:46:30.848Z,16.40
2022-09-04T05:49:09.211Z,16.30
2022-09-04T05:51:53.077Z,16.40
2022-09-04T05:54:51.810Z,16.50
2022-09-04T05:57:25.583Z,16.50
2022-09-04T06:00:04.152Z,16.50
2022-09-04T06:02:45.944Z,16.50
2022-09-04T06:05:46.853Z,16.50
2022-09-04T06:08:32.998Z,16.50
2022-09-04T06:11:25.668Z,16.50
2022-09-04T06:14:03.416Z,16.60
2022-09-04T06:16:55.450Z,16.80
2022-09-04T06:23:24.778Z,16.80
2022-09-04T06:26:00.427Z,16.80
2022-09-04T06:38:26.265Z,16.90
2022-09-04T06:41:12.303Z,16.70
2022-09-04T06:43:55.936Z,16.70
2022-09-04T06:46:41.488Z,16.70
2022-09-04T06:49:15.632Z,16.80
2022-09-04T06:52:21.190Z,16.80
2022-09-04T06:55:00.518Z,16.90
2022-09-04T06:57:46.508Z,16.90
2022-09-04T07:03:19.618Z,17.00
2022-09-04T07:06:04.174Z,16.90
2022-09-04T07:09:16.893Z,16.90
2022-09-04T07:12:09.847Z,16.90
2022-09-04T07:14:49.591Z,16.90
2022-09-04T07:17:33.434Z,17.00
2022-09-04T07:20:22.274Z,17.10
2022-09-04T07:23:15.967Z,17.10
2022-09-04T07:26:11.365Z,17.10
2022-09-04T07:32:11.317Z,17.10
2022-09-04T07:34:51.056Z,17.20
2022-09-04T07:37:25.091Z,17.40
2022-09-04T07:40:17.619Z,17.70
2022-09-04T07:42:57.565Z,17.40
2022-09-04T07:45:37.009Z,17.30
2022-09-04T07:51:05.296Z,17.20
2022-09-04T07:53:44.017Z,17.20
2022-09-04T07:56:17.211Z,17.40
2022-09-04T08:02:10.187Z,17.70
2022-09-04T08:05:12.720Z,17.90
2022-09-04T08:07:39.508Z,17.70
2022-09-04T08:14:04.531Z,18.00
2022-09-04T08:16:43.660Z,18.10
2022-09-04T08:22:48.925Z,18.50
2022-09-04T08:25:46.299Z,18.60
2022-09-04T08:28:26.934Z,18.50
2022-09-04T08:31:03.981Z,18.70
2022-09-04T08:33:54.221Z,19.00
2022-09-04T08:36:32.752Z,19.20
2022-09-04T08:39:22.824Z,19.40
2022-09-04T08:42:08.200Z,19.30
2022-09-04T08:44:58.184Z,19.60
2022-09-04T08:48:03.531Z,19.60
2022-09-04T08:50:58.711Z,19.40
2022-09-04T08:53:47.085Z,19.70
2022-09-04T08:56:47.213Z,20.00
2022-09-04T09:02:19.540Z,20.20
2022-09-04T09:04:47.800Z,20.30
2022-09-04T09:07:37.347Z,20.30
2022-09-04T09:10:23.133Z,20.20
2022-09-04T09:16:22.782Z,20.90
2022-09-04T09:19:22.850Z,21.10
2022-09-04T09:25:35.939Z,21.50
2022-09-04T09:28:27.563Z,21.70
2022-09-04T09:31:10.136Z,21.80
2022-09-04T09:33:54.943Z,21.90
2022-09-04T09:37:00.173Z,22.30
2022-09-04T09:43:04.413Z,22.70
2022-09-04T09:45:55.802Z,23.20
2022-09-04T09:48:48.492Z,23.30
2022-09-04T09:51:49.431Z,23.30
2022-09-04T09:54:16.260Z,23.20
2022-09-04T09:57:09.113Z,23.50
2022-09-04T10:00:06.680Z,24.00
2022-09-04T10:02:52.165Z,24.20
2022-09-04T10:05:49.567Z,24.50
2022-09-04T10:08:54.058Z,24.00
2022-09-04T10:11:29.212Z,24.50
2022-09-04T10:14:23.170Z,24.60
2022-09-04T10:17:19.474Z,24.50
2022-09-04T10:20:16.675Z,24.90
2022-09-04T10:22:55.622Z,25.70
2022-09-04T10:25:49.052Z,25.30
2022-09-04T10:28:25.944Z,25.30
2022-09-04T10:31:26.117Z,25.20
2022-09-04T10:34:14.854Z,24.70
2022-09-04T10:37:20.266Z,25.60
2022-09-04T10:40:44.453Z,25.20
2022-09-04T10:43:37.222Z,25.00
2022-09-04T10:46:23.365Z,25.50
2022-09-04T10:49:19.320Z,26.00
2022-09-04T10:52:24.582Z,26.00
2022-09-04T10:55:29.181Z,25.80
2022-09-04T10:58:19.076Z,25.60
2022-09-04T11:01:03.389Z,25.10
2022-09-04T11:03:57.432Z,25.10
2022-09-04T11:06:52.815Z,25.20
2022-09-04T11:09:42.116Z,26.40
2022-09-04T11:22:35.015Z,26.00
2022-09-04T11:25:37.419Z,27.00
2022-09-04T11:28:32.283Z,26.80
2022-09-04T11:31:14.481Z,27.40
2022-09-04T11:34:04.987Z,27.30
2022-09-04T11:36:53.199Z,27.30
2022-09-04T11:39:45.925Z,27.70
2022-09-04T11:42:33.846Z,28.00
2022-09-04T11:45:26.989Z,27.70
2022-09-04T11:48:03.142Z,26.80
2022-09-04T11:50:43.521Z,27.20
2022-09-04T11:53:37.717Z,26.80
2022-09-04T11:56:25.635Z,27.60
2022-09-04T11:59:12.284Z,27.00
2022-09-04T12:01:52.329Z,27.10
2022-09-04T12:04:42.985Z,27.30
2022-09-04T12:07:25.806Z,27.50
2022-09-04T12:10:12.316Z,26.90
2022-09-04T12:13:14.632Z,27.00
2022-09-04T12:16:07.954Z,26.80
2022-09-04T12:19:00.972Z,27.00
2022-09-04T12:21:35.805Z,27.80
2022-09-04T12:24:24.083Z,28.20
2022-09-04T12:27:12.547Z,27.80
2022-09-04T12:29:48.060Z,26.90
2022-09-04T12:32:35.939Z,26.30
2022-09-04T12:35:25.768Z,27.00
2022-09-04T12:38:24.444Z,26.90
2022-09-04T12:41:14.269Z,26.30
2022-09-04T12:43:48.651Z,26.60
2022-09-04T12:46:35.743Z,26.50
2022-09-04T12:49:29.366Z,26.40
2022-09-04T12:52:19.389Z,26.30
2022-09-04T12:54:52.363Z,26.10
2022-09-04T12:57:22.478Z,25.60
2022-09-04T13:00:12.097Z,25.40
2022-09-04T13:02:45.089Z,25.20
2022-09-04T13:05:56.548Z,25.50
2022-09-04T13:08:33.303Z,25.30
2022-09-04T13:11:30.960Z,25.20
2022-09-04T13:14:18.898Z,25.20
2022-09-04T13:17:15.495Z,25.20
2022-09-04T13:19:54.982Z,25.30
2022-09-04T13:22:36.099Z,25.20
2022-09-04T13:25:16.111Z,25.20
2022-09-04T13:28:12.117Z,25.00
2022-09-04T13:30:57.227Z,25.00
2022-09-04T13:33:51.291Z,25.00
2022-09-04T13:36:23.999Z,25.00
2022-09-04T13:39:31.053Z,24.80
2022-09-04T13:42:13.329Z,24.90
2022-09-04T13:44:58.260Z,25.00
2022-09-04T13:47:32.769Z,24.90
2022-09-04T13:50:17.158Z,24.90
2022-09-04T13:52:59.526Z,24.90
2022-09-04T13:55:38.761Z,24.80
2022-09-04T13:58:20.025Z,24.80
2022-09-04T14:00:51.772Z,24.90
2022-09-04T14:03:41.297Z,24.80
2022-09-04T14:06:11.502Z,24.90
2022-09-04T14:08:39.835Z,24.90
2022-09-04T14:11:30.099Z,25.00
2022-09-04T14:14:30.744Z,25.00
2022-09-04T14:16:58.481Z,24.90
2022-09-04T14:19:57.679Z,25.00
2022-09-04T14:22:33.659Z,24.90
2022-09-04T14:25:11.664Z,24.80
2022-09-04T14:27:50.658Z,24.80
2022-09-04T14:30:22.222Z,24.90
2022-09-04T14:33:18.908Z,24.80
2022-09-04T14:36:07.203Z,24.80
2022-09-04T14:39:01.015Z,24.80
2022-09-04T14:41:52.096Z,24.90
2022-09-04T14:44:45.073Z,24.70
2022-09-04T14:47:33.510Z,24.80
2022-09-04T14:50:01.346Z,24.90
2022-09-04T14:53:17.290Z,24.90
2022-09-04T14:56:27.788Z,24.90
2022-09-04T14:59:12.968Z,24.90
2022-09-04T15:02:08.988Z,25.00
2022-09-04T15:07:42.209Z,25.00
2022-09-04T15:10:26.963Z,24.80
2022-09-04T15:13:18.586Z,24.90
2022-09-04T15:18:53.740Z,24.90
2022-09-04T15:21:55.909Z,24.90
2022-09-04T15:24:32.790Z,24.80
2022-09-04T15:27:45.712Z,24.80
2022-09-04T15:30:22.203Z,24.80
2022-09-04T15:33:02.762Z,24.80
2022-09-04T15:35:33.914Z,24.80
2022-09-04T15:38:25.401Z,24.80
2022-09-04T15:41:15.570Z,24.80
2022-09-04T15:43:48.395Z,24.80
2022-09-04T15:46:37.432Z,24.80
2022-09-04T15:49:28.890Z,24.80
2022-09-04T15:58:33.606Z,24.70
2022-09-04T16:01:06.724Z,24.70
2022-09-04T16:03:42.267Z,24.70
2022-09-04T16:09:20.812Z,24.70
2022-09-04T16:12:10.274Z,24.60
2022-09-04T16:14:44.565Z,24.60
2022-09-04T16:17:26.091Z,24.50
2022-09-04T16:20:08.928Z,24.50
2022-09-04T16:25:50.611Z,24.40
2022-09-04T16:28:31.314Z,24.50
2022-09-04T16:34:20.026Z,24.50
2022-09-04T16:36:53.162Z,24.50
2022-09-04T16:42:37.615Z,24.40
2022-09-04T16:45:13.582Z,24.40
2022-09-04T16:48:33.938Z,24.30
2022-09-04T16:51:29.253Z,24.30
2022-09-04T16:57:13.514Z,24.30
2022-09-04T17:00:14.191Z,24.30
2022-09-04T17:06:06.237Z,24.20
2022-09-04T17:08:45.877Z,24.10
2022-09-04T17:14:36.086Z,24.10
2022-09-04T17:17:31.649Z,24.00
2022-09-04T17:20:03.770Z,23.90
2022-09-04T17:29:08.972Z,23.70
2022-09-04T17:29:08.974Z,23.60
2022-09-04T17:31:48.696Z,23.50
2022-09-04T17:40:43.842Z,23.50
2022-09-04T17:40:44.000Z,23.40
2022-09-04T17:41:34.444Z,23.30
2022-09-04T17:44:26.056Z,23.20
2022-09-04T17:47:20.436Z,23.10
2022-09-04T17:49:50.767Z,23.00
2022-09-04T17:52:31.019Z,22.90
2022-09-04T17:58:15.288Z,22.70
2022-09-04T18:01:14.128Z,22.50
2022-09-04T18:04:20.500Z,22.40
2022-09-04T18:06:56.918Z,22.20
2022-09-04T18:12:37.811Z,22.00
2022-09-04T18:15:33.528Z,21.90
2022-09-04T18:18:28.562Z,21.80
2022-09-04T18:20:55.578Z,21.60
2022-09-04T18:23:48.154Z,21.50
2022-09-04T18:26:41.175Z,21.50
2022-09-04T18:30:13.888Z,21.40
2022-09-04T18:37:22.643Z,21.30
2022-09-04T18:37:44.245Z,21.20
2022-09-04T18:39:09.728Z,21.10
2022-09-04T18:49:25.148Z,21.00
2022-09-04T18:50:44.413Z,20.80
2022-09-04T18:51:26.658Z,20.70
2022-09-04T18:54:14.136Z,20.60
2022-09-04T18:56:47.835Z,20.50
2022-09-04T19:02:23.184Z,20.40
2022-09-04T19:04:50.355Z,20.40
2022-09-04T19:10:26.526Z,20.20
2022-09-04T19:13:01.895Z,20.20
2022-09-04T19:21:36.229Z,20.00
2022-09-04T19:24:18.017Z,19.90
2022-09-04T19:27:02.376Z,19.90
2022-09-04T19:29:54.372Z,19.90
2022-09-04T19:32:46.443Z,19.80
2022-09-04T19:35:23.211Z,19.80
2022-09-04T19:42:12.873Z,19.70
2022-09-04T19:46:03.406Z,19.60
2022-09-04T19:47:31.137Z,19.50
2022-09-04T19:53:20.078Z,19.40
2022-09-04T19:53:40.755Z,19.40
2022-09-04T19:59:45.814Z,19.30
2022-09-04T20:02:30.359Z,19.30
2022-09-04T20:08:26.413Z,19.20
2022-09-04T20:11:01.654Z,19.20
2022-09-04T20:13:47.741Z,19.10
2022-09-04T20:19:39.694Z,19.00
2022-09-04T20:22:09.302Z,19.00
2022-09-04T20:24:43.277Z,19.00
2022-09-04T20:27:40.355Z,19.00
2022-09-04T20:30:31.987Z,18.90
2022-09-04T20:33:19.719Z,18.90
2022-09-04T20:35:59.876Z,18.90
2022-09-04T20:38:48.937Z,18.90
2022-09-04T20:41:42.500Z,18.80
2022-09-04T20:44:13.378Z,18.80
2022-09-04T20:52:55.061Z,18.80
2022-09-04T20:53:55.519Z,18.80
2022-09-04T20:57:43.566Z,18.80
2022-09-04T21:03:14.434Z,18.70
2022-09-04T21:06:30.071Z,18.60
2022-09-04T21:09:35.420Z,18.60
2022-09-04T21:12:30.623Z,18.60
2022-09-04T21:15:08.635Z,18.50
2022-09-04T21:21:23.207Z,18.50
2022-09-04T21:24:02.780Z,18.40
2022-09-04T21:26:43.312Z,18.40
2022-09-04T21:29:28.907Z,18.40
2022-09-04T21:32:17.344Z,18.40
2022-09-04T21:34:54.737Z,18.40
2022-09-04T21:37:53.216Z,18.40
2022-09-04T21:40:59.737Z,18.40
2022-09-04T21:43:33.400Z,18.40
2022-09-04T21:46:28.921Z,18.30
2022-09-04T21:52:33.007Z,18.30
2022-09-04T21:59:01.963Z,18.20
2022-09-04T22:02:45.897Z,18.10
2022-09-04T22:04:13.606Z,18.10
2022-09-04T22:13:29.417Z,18.00
2022-09-04T22:13:47.911Z,17.90
2022-09-04T22:19:55.751Z,17.90
2022-09-04T22:23:06.714Z,17.90
2022-09-04T22:25:47.772Z,17.90
2022-09-04T22:28:15.263Z,17.90
2022-09-04T22:31:19.926Z,17.80
2022-09-04T22:34:15.650Z,17.90
2022-09-04T22:49:49.712Z,17.70
2022-09-04T22:52:52.312Z,17.80
2022-09-04T22:56:08.066Z,17.80
2022-09-04T23:01:56.210Z,17.70
2022-09-04T23:04:58.412Z,17.60
2022-09-04T23:14:05.136Z,17.50
2022-09-04T23:16:45.691Z,17.50
2022-09-04T23:26:35.670Z,17.50
2022-09-04T23:26:43.218Z,17.40
2022-09-04T23:26:50.177Z,17.50
2022-09-04T23:32:29.746Z,17.50
2022-09-04T23:35:15.857Z,17.50
2022-09-04T23:38:03.959Z,17.50
2022-09-04T23:40:38.178Z,17.50
2022-09-04T23:46:23.742Z,17.50
2022-09-04T23:49:06.897Z,17.40
2022-09-04T23:52:04.973Z,17.40
2022-09-04T23:54:53.527Z,17.40
2022-09-04T23:57:44.839Z,17.40
